Riviera Beach, Texas
Current Conditions -  °F | °C
As of 5:56 PM on Wednesday 22 Oct 2014 (Local Time) from KNQI Reporting Station
Scattered Clouds Scattered Clouds  
Wind Chill: 27°   Ceiling: Unl
Heat Index: 28°   Visibility: 10mi
Dew Point: 19°   Wind: 12mph
Humidity: 62%   Direction: 100°E
Pressure: 30.01"   Gusts: NA
Location:  27.3193°N, 97.8839°W
Report Text: KNQI 222256Z 10010KT 10SM SCT044 27/19 A3001 RMK AO2 SLP157 T02670189
Loading
Personal Weather Stations






























Interactive Weather Map
Tropical Storm Tracking
New forecast layout! Learn more

10-Day Weather Forecast

Advertisements
Track Severe Weather on mobile